createdAt,value
2019-03-23T00:00:24.636Z,7.30
2019-03-23T00:02:53.872Z,8.93
2019-03-23T00:05:23.045Z,10.53
2019-03-23T00:07:52.389Z,8.73
2019-03-23T00:10:21.600Z,13.58
2019-03-23T00:12:50.759Z,16.10
2019-03-23T00:15:19.882Z,13.18
2019-03-23T00:17:49.123Z,8.50
2019-03-23T00:20:18.244Z,16.80
2019-03-23T00:22:47.404Z,12.05
2019-03-23T00:25:16.703Z,11.05
2019-03-23T00:27:49.102Z,11.83
2019-03-23T00:30:18.419Z,13.15
2019-03-23T00:32:47.627Z,15.38
2019-03-23T00:35:17.029Z,12.60
2019-03-23T00:37:46.287Z,12.33
2019-03-23T00:40:15.411Z,15.83
2019-03-23T00:42:44.683Z,17.85
2019-03-23T00:45:13.897Z,15.45
2019-03-23T00:47:43.069Z,16.32
2019-03-23T00:50:12.291Z,15.78
2019-03-23T00:52:41.657Z,15.45
2019-03-23T00:55:11.194Z,14.25
2019-03-23T00:57:40.261Z,14.18
2019-03-23T01:00:11.390Z,14.10
2019-03-23T01:02:41.945Z,16.42
2019-03-23T01:05:11.482Z,14.83
2019-03-23T01:07:40.524Z,18.48
2019-03-23T01:10:13.349Z,18.32
2019-03-23T01:12:42.730Z,23.65
2019-03-23T01:15:13.257Z,29.10
2019-03-23T01:17:42.557Z,31.25
2019-03-23T01:20:12.508Z,35.35
2019-03-23T01:22:41.725Z,37.42
2019-03-23T01:25:11.172Z,35.33
2019-03-23T01:27:40.560Z,39.78
2019-03-23T01:30:16.521Z,41.53
2019-03-23T01:32:46.012Z,47.85
2019-03-23T01:35:15.281Z,49.15
2019-03-23T01:37:44.678Z,50.65
2019-03-23T01:40:14.460Z,45.73
2019-03-23T01:42:43.660Z,58.08
2019-03-23T01:45:13.261Z,54.45
2019-03-23T01:47:42.393Z,47.20
2019-03-23T01:50:12.134Z,52.27
2019-03-23T01:52:41.437Z,55.25
2019-03-23T01:55:10.733Z,56.15
2019-03-23T01:57:40.076Z,56.70
2019-03-23T02:00:11.320Z,55.20
2019-03-23T02:02:40.595Z,64.47
2019-03-23T02:05:10.018Z,63.38
2019-03-23T02:07:39.325Z,67.25
2019-03-23T02:10:10.092Z,62.43
2019-03-23T02:12:39.372Z,65.25
2019-03-23T02:15:10.258Z,65.12
2019-03-23T02:17:39.564Z,73.97
2019-03-23T02:20:11.056Z,74.77
2019-03-23T02:22:40.216Z,71.07
2019-03-23T02:25:09.588Z,82.45
2019-03-23T02:27:38.943Z,78.35
2019-03-23T02:30:10.543Z,73.42
2019-03-23T02:32:39.973Z,78.20
2019-03-23T02:35:09.401Z,72.35
2019-03-23T02:37:38.595Z,75.17
2019-03-23T02:40:11.517Z,75.75
2019-03-23T02:42:40.844Z,80.25
2019-03-23T02:45:12.168Z,74.35
2019-03-23T02:47:41.314Z,72.78
2019-03-23T02:50:11.116Z,74.27
2019-03-23T02:52:40.363Z,71.85
2019-03-23T02:55:10.033Z,73.30
2019-03-23T02:57:39.352Z,74.17
2019-03-23T03:00:13.007Z,66.60
2019-03-23T03:02:42.113Z,65.50
2019-03-23T03:05:11.406Z,63.70
2019-03-23T03:07:43.183Z,69.15
2019-03-23T03:10:12.145Z,75.55
2019-03-23T03:12:40.988Z,71.65
2019-03-23T03:15:10.761Z,73.42
2019-03-23T03:17:39.888Z,75.03
2019-03-23T03:20:10.281Z,75.42
2019-03-23T03:22:39.520Z,82.08
2019-03-23T03:25:08.886Z,89.15
2019-03-23T03:27:38.160Z,87.22
2019-03-23T03:30:11.396Z,95.17
2019-03-23T03:32:40.519Z,86.87
2019-03-23T03:35:09.969Z,91.00
2019-03-23T03:37:39.216Z,94.52
2019-03-23T03:40:09.518Z,91.60
2019-03-23T03:42:38.865Z,106.47
2019-03-23T03:45:08.880Z,103.30
2019-03-23T03:47:41.051Z,97.40
2019-03-23T03:50:09.035Z,110.30
2019-03-23T03:52:38.254Z,112.62
2019-03-23T03:55:08.611Z,113.68
2019-03-23T03:57:37.580Z,102.35
2019-03-23T04:00:07.708Z,114.12
2019-03-23T04:02:36.914Z,100.35
2019-03-23T04:05:06.767Z,99.28
2019-03-23T04:07:36.040Z,120.28
2019-03-23T04:10:06.869Z,108.35
2019-03-23T04:12:36.164Z,98.62
2019-03-23T04:15:07.344Z,115.72
2019-03-23T04:17:36.438Z,104.58
2019-03-23T04:20:06.973Z,102.12
2019-03-23T04:22:36.154Z,95.17
2019-03-23T04:25:06.852Z,94.80
2019-03-23T04:27:36.066Z,113.85
2019-03-23T04:30:07.307Z,127.95
2019-03-23T04:32:36.657Z,108.37
2019-03-23T04:35:06.706Z,112.30
2019-03-23T04:37:35.930Z,105.30
2019-03-23T04:40:06.808Z,107.27
2019-03-23T04:42:36.033Z,106.27
2019-03-23T04:45:07.025Z,109.83
2019-03-23T04:47:36.303Z,105.70
2019-03-23T04:50:10.294Z,102.40
2019-03-23T04:52:39.389Z,104.65
2019-03-23T04:55:12.500Z,114.05
2019-03-23T04:57:41.669Z,85.40
2019-03-23T05:00:13.972Z,111.75
2019-03-23T05:02:43.289Z,118.87
2019-03-23T05:05:12.897Z,101.92
2019-03-23T05:07:41.873Z,112.68
2019-03-23T05:10:11.524Z,102.70
2019-03-23T05:12:40.721Z,119.60
2019-03-23T05:15:10.094Z,125.38
2019-03-23T05:17:39.375Z,112.92
2019-03-23T05:20:10.344Z,112.68
2019-03-23T05:22:39.608Z,115.37
2019-03-23T05:25:11.800Z,127.40
2019-03-23T05:27:41.099Z,119.00
2019-03-23T05:30:10.452Z,118.50
2019-03-23T05:32:39.783Z,114.42
2019-03-23T05:35:08.957Z,119.67
2019-03-23T05:37:38.238Z,112.92
2019-03-23T05:40:07.597Z,127.70
2019-03-23T05:42:36.842Z,121.05
2019-03-23T05:45:09.273Z,133.10
2019-03-23T05:47:38.589Z,136.28
2019-03-23T05:50:08.133Z,122.92
2019-03-23T05:52:37.308Z,119.70
2019-03-23T05:55:06.634Z,123.95
2019-03-23T05:57:35.979Z,130.40
2019-03-23T06:00:07.041Z,117.57
2019-03-23T06:02:36.353Z,122.92
2019-03-23T06:05:06.851Z,123.82
2019-03-23T06:07:35.913Z,107.60
2019-03-23T06:10:07.061Z,119.85
2019-03-23T06:12:36.337Z,124.40
2019-03-23T06:15:06.116Z,100.27
2019-03-23T06:17:35.364Z,108.27
2019-03-23T06:20:05.711Z,110.85
2019-03-23T06:22:34.893Z,109.27
2019-03-23T06:25:05.592Z,93.58
2019-03-23T06:27:34.848Z,98.80
2019-03-23T06:30:04.505Z,101.67
2019-03-23T06:32:33.861Z,91.08
2019-03-23T06:35:03.112Z,96.85
2019-03-23T06:37:32.359Z,99.62
2019-03-23T06:40:01.573Z,96.65
2019-03-23T06:42:30.845Z,91.55
2019-03-23T06:45:00.045Z,98.40
2019-03-23T06:47:29.403Z,91.95
2019-03-23T06:49:58.781Z,97.45
2019-03-23T06:52:28.034Z,88.17
2019-03-23T06:54:57.300Z,100.38
2019-03-23T06:57:26.538Z,91.10
2019-03-23T06:59:55.681Z,91.70
2019-03-23T07:02:24.801Z,96.17
2019-03-23T07:04:54.070Z,98.17
2019-03-23T07:07:23.400Z,96.60
2019-03-23T07:09:52.750Z,85.45
2019-03-23T07:12:21.730Z,95.15
2019-03-23T07:14:51.137Z,103.85
2019-03-23T07:17:20.393Z,95.80
2019-03-23T07:19:49.488Z,89.05
2019-03-23T07:22:18.616Z,97.42
2019-03-23T07:24:47.912Z,92.35
2019-03-23T07:27:17.159Z,98.85
2019-03-23T07:29:46.332Z,80.47
2019-03-23T07:32:15.508Z,88.80
2019-03-23T07:34:44.794Z,89.67
2019-03-23T07:37:14.071Z,88.55
2019-03-23T07:39:43.210Z,88.62
2019-03-23T07:42:12.445Z,88.17
2019-03-23T07:44:41.754Z,89.92
2019-03-23T07:47:11.036Z,90.87
2019-03-23T07:49:40.189Z,92.30
2019-03-23T07:52:09.590Z,91.55
2019-03-23T07:54:38.857Z,80.45
2019-03-23T07:57:08.126Z,85.85
2019-03-23T07:59:37.251Z,85.60
2019-03-23T08:02:06.587Z,92.35
2019-03-23T08:04:35.802Z,97.35
2019-03-23T08:07:05.182Z,93.22
2019-03-23T08:09:37.867Z,93.37
2019-03-23T08:12:05.322Z,100.27
2019-03-23T08:14:36.165Z,95.15
2019-03-23T08:17:05.177Z,86.78
2019-03-23T08:19:34.431Z,94.40
2019-03-23T08:22:03.780Z,91.65
2019-03-23T08:24:32.987Z,89.65
2019-03-23T08:27:02.550Z,85.57
2019-03-23T08:29:31.544Z,89.58
2019-03-23T08:32:00.836Z,87.08
2019-03-23T08:34:30.097Z,93.92
2019-03-23T08:36:59.347Z,81.95
2019-03-23T08:39:28.672Z,88.95
2019-03-23T08:41:59.451Z,92.85
2019-03-23T08:44:28.697Z,92.15
2019-03-23T08:46:58.017Z,92.62
2019-03-23T08:49:28.648Z,93.07
2019-03-23T08:51:57.937Z,87.20
2019-03-23T08:54:27.070Z,91.40
2019-03-23T08:56:56.363Z,83.37
2019-03-23T08:59:25.677Z,91.53
2019-03-23T09:01:54.931Z,95.55
2019-03-23T09:04:24.130Z,98.33
2019-03-23T09:06:53.293Z,91.02
2019-03-23T09:09:22.731Z,91.00
2019-03-23T09:11:51.952Z,86.45
2019-03-23T09:14:23.407Z,89.30
2019-03-23T09:16:51.907Z,93.92
2019-03-23T09:19:21.230Z,89.72
2019-03-23T09:21:50.466Z,81.35
2019-03-23T09:24:19.698Z,86.30
2019-03-23T09:26:48.997Z,84.90
2019-03-23T09:29:18.237Z,99.72
2019-03-23T09:31:47.494Z,87.30
2019-03-23T09:34:16.685Z,87.40
2019-03-23T09:36:45.883Z,91.22
2019-03-23T09:39:15.049Z,94.42
2019-03-23T09:41:44.336Z,81.22
2019-03-23T09:44:13.461Z,86.70
2019-03-23T09:46:42.830Z,84.47
2019-03-23T09:49:12.198Z,81.15
2019-03-23T09:51:41.572Z,86.35
2019-03-23T09:54:10.829Z,86.92
2019-03-23T09:56:40.173Z,84.25
2019-03-23T09:59:09.486Z,82.33
2019-03-23T10:01:38.819Z,80.30
2019-03-23T10:04:08.022Z,89.75
2019-03-23T10:06:37.279Z,87.08
2019-03-23T10:09:07.152Z,82.40
2019-03-23T10:11:36.273Z,74.32
2019-03-23T10:14:05.361Z,77.50
2019-03-23T10:16:34.745Z,78.45
2019-03-23T10:19:03.996Z,80.55
2019-03-23T10:21:33.285Z,72.05
2019-03-23T10:24:02.556Z,61.63
2019-03-23T10:26:31.713Z,70.45
2019-03-23T10:29:00.918Z,67.55
2019-03-23T10:31:30.164Z,64.17
2019-03-23T10:33:59.265Z,76.40
2019-03-23T10:36:28.513Z,73.35
2019-03-23T10:38:57.684Z,69.72
2019-03-23T10:41:27.066Z,70.32
2019-03-23T10:43:56.169Z,69.58
2019-03-23T10:46:25.313Z,64.70
2019-03-23T10:48:54.651Z,68.57
2019-03-23T10:51:23.768Z,64.07
2019-03-23T10:53:52.983Z,67.25
2019-03-23T10:56:22.095Z,66.17
2019-03-23T10:58:51.365Z,61.45
2019-03-23T11:01:20.559Z,71.97
2019-03-23T11:03:49.713Z,65.97
2019-03-23T11:06:19.065Z,60.67
2019-03-23T11:08:48.264Z,52.03
2019-03-23T11:11:17.457Z,57.45
2019-03-23T11:13:46.757Z,59.65
2019-03-23T11:16:15.963Z,60.35
2019-03-23T11:18:45.263Z,61.45
2019-03-23T11:21:14.601Z,59.58
2019-03-23T11:23:45.493Z,59.93
2019-03-23T11:26:14.444Z,58.02
2019-03-23T11:28:43.495Z,56.25
2019-03-23T11:31:13.022Z,55.33
2019-03-23T11:33:42.289Z,56.10
2019-03-23T11:36:11.589Z,55.03
2019-03-23T11:38:40.811Z,53.35
2019-03-23T11:41:10.040Z,59.55
2019-03-23T11:43:39.296Z,55.28
2019-03-23T11:46:08.622Z,60.75
2019-03-23T11:48:37.752Z,53.15
2019-03-23T11:51:07.417Z,53.92
2019-03-23T11:53:36.677Z,55.45
2019-03-23T11:56:06.168Z,49.53
2019-03-23T11:58:35.376Z,55.52
2019-03-23T12:01:04.616Z,56.40
2019-03-23T12:03:33.979Z,50.23
2019-03-23T12:06:03.091Z,53.92
2019-03-23T12:08:32.278Z,46.48
2019-03-23T12:11:03.078Z,50.40
2019-03-23T12:13:32.231Z,55.25
2019-03-23T12:16:01.342Z,50.20
2019-03-23T12:18:30.471Z,42.30
2019-03-23T12:20:59.629Z,41.00
2019-03-23T12:23:29.014Z,45.30
2019-03-23T12:25:58.159Z,44.08
2019-03-23T12:28:27.493Z,39.88
2019-03-23T12:30:56.492Z,50.08
2019-03-23T12:33:25.709Z,41.88
2019-03-23T12:35:54.845Z,41.63
2019-03-23T12:38:24.045Z,44.18
2019-03-23T12:40:53.364Z,45.75
2019-03-23T12:43:22.696Z,45.30
2019-03-23T12:45:51.909Z,45.03
2019-03-23T12:48:21.156Z,41.45
2019-03-23T12:50:50.390Z,48.65
2019-03-23T12:53:19.692Z,45.73
2019-03-23T12:55:49.090Z,46.83
2019-03-23T12:58:18.260Z,39.48
2019-03-23T13:00:47.437Z,45.98
2019-03-23T13:03:16.800Z,44.83
2019-03-23T13:05:46.229Z,42.45
2019-03-23T13:08:15.352Z,48.87
2019-03-23T13:10:44.725Z,42.08
2019-03-23T13:13:13.930Z,50.00
2019-03-23T13:15:43.036Z,47.65
2019-03-23T13:18:12.393Z,47.20
2019-03-23T13:20:41.648Z,40.12
2019-03-23T13:23:12.662Z,44.23
2019-03-23T13:25:41.804Z,47.08
2019-03-23T13:28:11.269Z,40.43
2019-03-23T13:30:40.477Z,42.93
2019-03-23T13:33:09.611Z,42.88
2019-03-23T13:35:38.736Z,45.45
2019-03-23T13:38:08.061Z,40.38
2019-03-23T13:40:37.213Z,39.70
2019-03-23T13:43:06.528Z,40.10
2019-03-23T13:45:42.549Z,38.25
2019-03-23T13:48:06.617Z,41.08
2019-03-23T13:50:35.873Z,38.28
2019-03-23T13:53:05.252Z,39.83
2019-03-23T13:55:34.952Z,38.40
2019-03-23T13:58:09.279Z,42.85
2019-03-23T14:00:38.619Z,39.03
2019-03-23T14:03:08.373Z,40.23
2019-03-23T14:05:37.677Z,39.35
2019-03-23T14:08:06.773Z,36.58
2019-03-23T14:10:35.989Z,39.38
2019-03-23T14:13:05.303Z,42.10
2019-03-23T14:15:34.316Z,41.25
2019-03-23T14:18:03.486Z,37.48
2019-03-23T14:20:32.657Z,37.70
2019-03-23T14:23:02.941Z,44.27
2019-03-23T14:25:32.475Z,39.63
2019-03-23T14:28:01.963Z,40.43
2019-03-23T14:30:31.067Z,41.55
2019-03-23T14:33:00.339Z,41.63
2019-03-23T14:35:29.634Z,47.27
2019-03-23T14:37:58.792Z,47.55
2019-03-23T14:40:28.225Z,51.30
2019-03-23T14:42:57.413Z,48.40
2019-03-23T14:45:26.643Z,50.92
2019-03-23T14:47:55.889Z,45.33
2019-03-23T14:50:25.190Z,48.90
2019-03-23T14:52:54.337Z,44.20
2019-03-23T14:55:23.381Z,46.63
2019-03-23T14:57:52.612Z,45.88
2019-03-23T15:00:29.863Z,46.20
2019-03-23T15:02:59.160Z,46.05
2019-03-23T15:05:28.435Z,47.48
2019-03-23T15:07:57.725Z,51.70
2019-03-23T15:10:27.044Z,47.20
2019-03-23T15:12:56.232Z,46.20
2019-03-23T15:15:25.317Z,44.83
2019-03-23T15:17:54.588Z,43.42
2019-03-23T15:20:23.684Z,53.38
2019-03-23T15:22:52.953Z,47.40
2019-03-23T15:25:22.165Z,49.77
2019-03-23T15:27:51.272Z,45.23
2019-03-23T15:30:20.592Z,43.58
2019-03-23T15:32:49.847Z,47.17
2019-03-23T15:35:19.201Z,43.38
2019-03-23T15:37:48.283Z,42.17
2019-03-23T15:40:17.452Z,44.15
2019-03-23T15:42:46.633Z,45.43
2019-03-23T15:45:15.793Z,40.15
2019-03-23T15:47:44.967Z,45.20
2019-03-23T15:50:14.198Z,43.92
2019-03-23T15:52:43.456Z,41.48
2019-03-23T15:55:12.757Z,47.00
2019-03-23T15:57:41.876Z,46.55
2019-03-23T16:00:11.698Z,45.60
2019-03-23T16:02:40.979Z,46.28
2019-03-23T16:05:10.163Z,46.45
2019-03-23T16:07:39.366Z,48.02
2019-03-23T16:10:08.728Z,48.13
2019-03-23T16:12:38.082Z,46.18
2019-03-23T16:15:11.466Z,53.85
2019-03-23T16:17:40.752Z,46.15
2019-03-23T16:20:11.154Z,46.55
2019-03-23T16:22:40.366Z,45.28
2019-03-23T16:25:09.513Z,45.38
2019-03-23T16:27:38.775Z,47.58
2019-03-23T16:30:10.204Z,48.92
2019-03-23T16:32:39.448Z,45.83
2019-03-23T16:35:08.804Z,52.50
2019-03-23T16:37:37.908Z,51.15
2019-03-23T16:40:08.773Z,49.50
2019-03-23T16:42:45.142Z,48.85
2019-03-23T16:45:10.085Z,51.53
2019-03-23T16:47:39.248Z,46.70
2019-03-23T16:50:08.448Z,48.55
2019-03-23T16:52:38.411Z,49.95
2019-03-23T16:55:10.825Z,51.63
2019-03-23T16:57:40.014Z,47.85
2019-03-23T17:00:12.151Z,48.75
2019-03-23T17:02:41.466Z,46.80
2019-03-23T17:05:10.813Z,49.48
2019-03-23T17:07:40.078Z,50.48
2019-03-23T17:10:09.556Z,49.53
2019-03-23T17:12:38.854Z,44.70
2019-03-23T17:15:08.482Z,47.62
2019-03-23T17:17:37.543Z,45.00
2019-03-23T17:20:06.749Z,47.75
2019-03-23T17:22:35.949Z,47.00
2019-03-23T17:25:06.707Z,51.30
2019-03-23T17:27:36.043Z,48.15
2019-03-23T17:30:06.835Z,46.02
2019-03-23T17:32:36.540Z,50.75
2019-03-23T17:35:09.645Z,49.05
2019-03-23T17:37:38.818Z,49.35
2019-03-23T17:40:08.385Z,45.80
2019-03-23T17:42:37.599Z,46.65
2019-03-23T17:45:07.831Z,47.75
2019-03-23T17:47:37.136Z,46.92
2019-03-23T17:50:07.183Z,46.90
2019-03-23T17:52:36.429Z,44.50
2019-03-23T17:55:08.576Z,46.05
2019-03-23T17:57:37.992Z,48.00
2019-03-23T18:00:08.641Z,47.62
2019-03-23T18:02:38.463Z,50.33
2019-03-23T18:05:08.129Z,41.13
2019-03-23T18:07:37.364Z,53.30
2019-03-23T18:10:08.650Z,47.80
2019-03-23T18:12:37.859Z,50.03
2019-03-23T18:15:08.278Z,50.35
2019-03-23T18:17:37.485Z,53.25
2019-03-23T18:20:06.665Z,52.15
2019-03-23T18:22:35.769Z,55.45
2019-03-23T18:25:05.751Z,52.45
2019-03-23T18:27:35.991Z,56.80
2019-03-23T18:30:08.226Z,54.85
2019-03-23T18:32:37.504Z,56.42
2019-03-23T18:35:07.795Z,52.40
2019-03-23T18:37:36.933Z,52.93
2019-03-23T18:40:08.262Z,48.52
2019-03-23T18:42:37.579Z,48.87
2019-03-23T18:45:07.401Z,44.93
2019-03-23T18:47:36.557Z,33.60
2019-03-23T18:50:06.876Z,42.48
2019-03-23T18:52:35.976Z,36.95
2019-03-23T18:55:07.053Z,31.10
2019-03-23T18:57:36.257Z,25.43
2019-03-23T19:00:07.478Z,25.57
2019-03-23T19:02:36.743Z,21.33
2019-03-23T19:05:06.701Z,23.65
2019-03-23T19:07:35.869Z,15.70
2019-03-23T19:10:06.163Z,15.25
2019-03-23T19:12:35.590Z,18.77
2019-03-23T19:15:08.524Z,16.93
2019-03-23T19:17:39.775Z,16.97
2019-03-23T19:20:09.797Z,13.55
2019-03-23T19:22:40.164Z,15.00
2019-03-23T19:25:16.987Z,17.87
2019-03-23T19:27:42.062Z,19.17
2019-03-23T19:30:11.392Z,15.25
2019-03-23T19:32:41.889Z,19.30
2019-03-23T19:35:11.437Z,15.90
2019-03-23T19:37:40.678Z,19.15
2019-03-23T19:40:10.314Z,19.20
2019-03-23T19:42:39.675Z,16.55
2019-03-23T19:45:09.345Z,18.10
2019-03-23T19:47:38.537Z,17.55
2019-03-23T19:50:08.872Z,20.50
2019-03-23T19:52:38.037Z,18.42
2019-03-23T19:55:10.515Z,17.55
2019-03-23T19:57:39.868Z,17.57
2019-03-23T20:00:09.846Z,18.60
2019-03-23T20:02:39.363Z,19.27
2019-03-23T20:05:08.517Z,18.48
2019-03-23T20:07:37.871Z,17.90
2019-03-23T20:10:09.058Z,16.50
2019-03-23T20:12:39.431Z,20.27
2019-03-23T20:15:10.356Z,20.20
2019-03-23T20:17:39.736Z,18.15
2019-03-23T20:20:09.134Z,18.52
2019-03-23T20:22:38.546Z,18.07
2019-03-23T20:25:08.640Z,21.57
2019-03-23T20:27:37.983Z,16.20
2019-03-23T20:30:08.893Z,18.52
2019-03-23T20:32:38.336Z,17.07
2019-03-23T20:35:08.579Z,16.30
2019-03-23T20:37:37.789Z,16.00
2019-03-23T20:40:07.893Z,17.05
2019-03-23T20:42:37.316Z,16.40
2019-03-23T20:45:07.445Z,17.90
2019-03-23T20:47:37.395Z,14.73
2019-03-23T20:50:08.169Z,16.30
2019-03-23T20:52:37.404Z,15.32
2019-03-23T20:55:08.759Z,13.22
2019-03-23T20:57:38.365Z,13.62
2019-03-23T21:00:08.517Z,13.78
2019-03-23T21:02:38.029Z,13.83
2019-03-23T21:05:07.210Z,14.43
2019-03-23T21:07:37.353Z,13.25
2019-03-23T21:10:08.340Z,11.25
2019-03-23T21:12:38.197Z,12.95
2019-03-23T21:15:07.705Z,11.90
2019-03-23T21:17:36.942Z,11.20
2019-03-23T21:20:07.420Z,10.08
2019-03-23T21:22:37.644Z,10.43
2019-03-23T21:25:08.601Z,10.53
2019-03-23T21:27:38.640Z,9.60
2019-03-23T21:30:11.683Z,10.08
2019-03-23T21:32:41.008Z,10.82
2019-03-23T21:35:10.369Z,13.93
2019-03-23T21:37:39.738Z,12.75
2019-03-23T21:40:09.414Z,10.60
2019-03-23T21:42:39.082Z,12.78
2019-03-23T21:45:08.382Z,11.43
2019-03-23T21:47:37.741Z,13.18
2019-03-23T21:50:10.296Z,10.25
2019-03-23T21:52:39.748Z,11.03
2019-03-23T21:55:09.206Z,10.30
2019-03-23T21:57:38.438Z,11.75
2019-03-23T22:00:07.856Z,12.37
2019-03-23T22:02:36.920Z,11.50
2019-03-23T22:05:08.258Z,14.13
2019-03-23T22:07:37.567Z,11.78
2019-03-23T22:10:08.865Z,11.73
2019-03-23T22:12:38.280Z,14.73
2019-03-23T22:15:08.395Z,12.50
2019-03-23T22:17:37.729Z,9.63
2019-03-23T22:20:08.285Z,8.98
2019-03-23T22:22:37.713Z,9.73
2019-03-23T22:25:07.528Z,13.93
2019-03-23T22:27:37.657Z,11.90
2019-03-23T22:30:10.208Z,11.45
2019-03-23T22:32:39.489Z,10.30
2019-03-23T22:35:09.510Z,16.10
2019-03-23T22:37:38.729Z,12.03
2019-03-23T22:40:08.491Z,13.50
2019-03-23T22:42:37.703Z,10.45
2019-03-23T22:45:10.693Z,11.22
2019-03-23T22:47:39.796Z,10.85
2019-03-23T22:50:09.828Z,8.30
2019-03-23T22:52:39.027Z,14.10
2019-03-23T22:55:08.346Z,15.10
2019-03-23T22:57:37.592Z,10.00
2019-03-23T23:00:19.666Z,10.65
2019-03-23T23:02:48.903Z,13.95
2019-03-23T23:05:18.103Z,12.30
2019-03-23T23:07:47.437Z,11.78
2019-03-23T23:10:16.610Z,10.70
2019-03-23T23:12:45.994Z,11.88
2019-03-23T23:15:15.197Z,10.23
2019-03-23T23:17:44.273Z,14.18
2019-03-23T23:20:13.520Z,8.20
2019-03-23T23:22:42.762Z,10.58
2019-03-23T23:25:11.980Z,11.65
2019-03-23T23:27:41.257Z,11.28
2019-03-23T23:30:11.032Z,11.33
2019-03-23T23:32:40.275Z,15.80
2019-03-23T23:35:10.055Z,10.35
2019-03-23T23:37:39.404Z,12.60
2019-03-23T23:40:08.700Z,11.55
2019-03-23T23:42:38.013Z,15.58
2019-03-23T23:45:15.745Z,16.00
2019-03-23T23:47:41.942Z,11.25
2019-03-23T23:50:11.276Z,14.85
2019-03-23T23:52:40.501Z,12.00
2019-03-23T23:55:10.228Z,12.20
2019-03-23T23:57:39.547Z,11.53
